Time;durP1;ratioP1;P1;durP2;ratioP2;P2;SDS_P1;SDS_P2;PMS_P1;PMS_P2;Temp;Humidity;BMP_temperature;BMP_pressure;BME280_temperature;BME280_humidity;BME280_pressure;Samples;Min_cycle;Max_cycle;Signal;HPM_P1;HPM_P2
2021/03/25 00:02:00;;;;;;;18.25;10.82;;;;;;;;;;5036556;28;20032;-56
2021/03/25 00:04:31;;;;;;;20.70;11.73;;;;;;;;;;5036811;28;20082;-56
2021/03/25 00:07:13;;;;;;;15.10;9.63;;;;;;;;;;5054459;28;20071;-56
2021/03/25 00:09:50;;;;;;;13.85;10.57;;;;;;;;;;5054670;28;20021;-55
2021/03/25 00:12:25;;;;;;;15.95;11.52;;;;;;;;;;5054296;28;20017;-57
2021/03/25 00:15:20;;;;;;;16.83;10.55;;;;;;;;;;5035997;28;20017;-57
2021/03/25 00:18:05;;;;;;;11.60;10.20;;;;;;;;;;5052468;28;20029;-56
2021/03/25 00:20:32;;;;;;;16.25;12.02;;;;;;;;;;5054502;28;20036;-56
2021/03/25 00:23:09;;;;;;;20.50;12.17;;;;;;;;;;5054750;28;20022;-56
2021/03/25 00:25:55;;;;;;;;;;;;;;;;;;;;;
2021/03/25 00:28:31;;;;;;;21.98;10.63;;;;;;;;;;5038838;28;20055;-54
2021/03/25 00:34:32;;;;;;;17.67;11.68;;;;;;;;;;5053571;28;20471;-57
2021/03/25 00:37:01;;;;;;;19.67;10.98;;;;;;;;;;5036820;28;20025;-56
2021/03/25 00:39:56;;;;;;;21.35;11.98;;;;;;;;;;5047948;28;20048;-57
2021/03/25 00:42:33;;;;;;;20.77;12.80;;;;;;;;;;5052116;28;20043;-57
2021/03/25 00:45:37;;;;;;;;;;;;;;;;;;;;;
2021/03/25 00:48:09;;;;;;;16.02;13.45;;;;;;;;;;5053569;28;20342;-57
2021/03/25 00:50:49;;;;;;;19.75;11.52;;;;;;;;;;5053547;28;20028;-57
2021/03/25 00:53:30;;;;;;;19.33;11.98;;;;;;;;;;5053652;28;20118;-55
2021/03/25 00:55:58;;;;;;;17.60;11.37;;;;;;;;;;5039777;28;20025;-57
2021/03/25 00:58:47;;;;;;;14.63;11.40;;;;;;;;;;5039512;28;20356;-57
2021/03/25 01:01:22;;;;;;;12.40;10.67;;;;;;;;;;5040044;28;20048;-57
2021/03/25 01:03:58;;;;;;;14.23;11.07;;;;;;;;;;5057438;28;20477;-57
2021/03/25 01:06:55;;;;;;;15.27;11.23;;;;;;;;;;5057585;28;20017;-57
2021/03/25 01:09:37;;;;;;;13.30;10.73;;;;;;;;;;5039387;28;20044;-56
2021/03/25 01:12:28;;;;;;;20.40;11.80;;;;;;;;;;5022279;28;20029;-57
2021/03/25 01:18:05;;;;;;;17.13;11.27;;;;;;;;;;5046026;28;19991;-57
2021/03/25 01:20:38;;;;;;;19.00;12.57;;;;;;;;;;5056862;28;20040;-56
2021/03/25 01:25:51;;;;;;;20.47;12.50;;;;;;;;;;5056699;28;20068;-57
2021/03/25 01:28:26;;;;;;;16.88;11.20;;;;;;;;;;5057240;28;20433;-57
2021/03/25 01:30:57;;;;;;;13.33;10.23;;;;;;;;;;5056916;28;20029;-55
2021/03/25 01:33:34;;;;;;;17.37;11.50;;;;;;;;;;5057399;28;20455;-57
2021/03/25 01:36:10;;;;;;;13.47;10.37;;;;;;;;;;5038290;28;20108;-57
2021/03/25 01:38:45;;;;;;;16.77;10.13;;;;;;;;;;5057016;28;20033;-58
2021/03/25 01:41:27;;;;;;;15.47;9.43;;;;;;;;;;5057329;28;20033;-56
2021/03/25 01:44:12;;;;;;;17.50;11.30;;;;;;;;;;5056687;28;20109;-56
2021/03/25 01:46:48;;;;;;;13.60;11.83;;;;;;;;;;5038762;28;20364;-57
2021/03/25 01:49:15;;;;;;;13.00;9.13;;;;;;;;;;5038554;28;20439;-57
2021/03/25 01:52:00;;;;;;;14.20;10.83;;;;;;;;;;5056374;28;20043;-57
2021/03/25 01:54:56;;;;;;;15.27;9.70;;;;;;;;;;5056533;28;20055;-57
2021/03/25 02:00:35;;;;;;;17.17;9.87;;;;;;;;;;5045685;28;20051;-57
2021/03/25 02:03:23;;;;;;;15.30;10.70;;;;;;;;;;5055839;28;20075;-55
2021/03/25 02:06:18;;;;;;;19.47;9.67;;;;;;;;;;5056103;28;20032;-55
2021/03/25 02:08:54;;;;;;;22.17;11.00;;;;;;;;;;5039043;28;20406;-57
2021/03/25 02:11:51;;;;;;;15.90;10.50;;;;;;;;;;5056257;28;20055;-55
2021/03/25 02:14:22;;;;;;;12.60;9.30;;;;;;;;;;5038163;28;20034;-57
2021/03/25 02:17:10;;;;;;;13.23;9.87;;;;;;;;;;5056379;28;20049;-56
2021/03/25 02:20:03;;;;;;;14.20;9.63;;;;;;;;;;5055870;28;20155;-56
2021/03/25 02:22:58;;;;;;;12.47;8.37;;;;;;;;;;5056462;28;20029;-57
2021/03/25 02:25:27;;;;;;;11.00;8.83;;;;;;;;;;5037654;28;20025;-56
2021/03/25 02:28:28;;;;;;;19.00;9.47;;;;;;;;;;5055671;28;20029;-57
2021/03/25 02:31:05;;;;;;;16.83;10.03;;;;;;;;;;5037497;28;20167;-57
2021/03/25 02:34:10;;;;;;;14.07;8.87;;;;;;;;;;5056678;28;20255;-56
2021/03/25 02:37:10;;;;;;;11.03;9.20;;;;;;;;;;5037959;28;20532;-55
2021/03/25 02:40:07;;;;;;;10.55;8.82;;;;;;;;;;5031733;28;20044;-56
2021/03/25 02:46:31;;;;;;;11.73;7.90;;;;;;;;;;4992211;28;20040;-56
2021/03/25 02:52:23;;;;;;;12.88;8.38;;;;;;;;;;5055311;28;20120;-56
2021/03/25 02:55:06;;;;;;;12.32;7.85;;;;;;;;;;5037233;28;20044;-56
2021/03/25 02:57:55;;;;;;;12.03;8.43;;;;;;;;;;5037502;28;20433;-56
2021/03/25 03:00:51;;;;;;;9.27;7.40;;;;;;;;;;5055603;28;20091;-57
2021/03/25 03:03:58;;;;;;;14.87;10.03;;;;;;;;;;5021225;28;20036;-55
2021/03/25 03:06:54;;;;;;;;;;;;;;;;;;;;;
2021/03/25 03:12:45;;;;;;;13.73;8.90;;;;;;;;;;5054879;28;20029;-57
2021/03/25 03:15:20;;;;;;;11.73;9.13;;;;;;;;;;5030822;28;20041;-57
2021/03/25 03:18:07;;;;;;;12.37;8.67;;;;;;;;;;5036668;28;20023;-56
2021/03/25 03:20:52;;;;;;;12.33;9.10;;;;;;;;;;5023394;28;20136;-57
2021/03/25 03:27:12;;;;;;;10.83;7.93;;;;;;;;;;4993202;28;20113;-57
2021/03/25 03:29:54;;;;;;;8.90;8.00;;;;;;;;;;4993426;28;20108;-56
2021/03/25 03:32:54;;;;;;;16.23;8.97;;;;;;;;;;5055219;28;20021;-56
2021/03/25 03:35:38;;;;;;;9.97;7.63;;;;;;;;;;5054562;28;20017;-57
2021/03/25 03:38:52;;;;;;;;;;;;;;;;;;;;;
2021/03/25 03:41:30;;;;;;;12.20;7.77;;;;;;;;;;5051375;28;20489;-56
2021/03/25 03:44:11;;;;;;;14.47;8.20;;;;;;;;;;5054665;28;20562;-57
2021/03/25 03:46:51;;;;;;;10.80;8.60;;;;;;;;;;5036450;28;20382;-57
2021/03/25 03:52:33;;;;;;;9.60;6.63;;;;;;;;;;5054369;28;20036;-57
2021/03/25 03:55:00;;;;;;;10.43;7.70;;;;;;;;;;5053940;28;20052;-57
2021/03/25 03:57:50;;;;;;;9.67;7.83;;;;;;;;;;5036221;28;20477;-57
2021/03/25 04:03:43;;;;;;;9.90;8.07;;;;;;;;;;5050732;28;20035;-55
2021/03/25 04:09:23;;;;;;;9.55;7.90;;;;;;;;;;5054752;28;20447;-57
2021/03/25 04:12:00;;;;;;;10.50;7.47;;;;;;;;;;5053757;28;20025;-57
2021/03/25 04:14:50;;;;;;;13.77;8.27;;;;;;;;;;5054754;28;20445;-57
2021/03/25 04:17:36;;;;;;;12.20;8.90;;;;;;;;;;5054634;28;20029;-57
2021/03/25 04:20:43;;;;;;;12.50;8.67;;;;;;;;;;4956386;28;20489;-57
2021/03/25 04:23:19;;;;;;;10.60;7.67;;;;;;;;;;4954216;28;20147;-57
2021/03/25 04:26:10;;;;;;;12.07;8.73;;;;;;;;;;5042857;28;20037;-55
2021/03/25 04:29:02;;;;;;;7.53;6.65;;;;;;;;;;4972760;28;20046;-57
2021/03/25 04:31:38;;;;;;;9.10;7.97;;;;;;;;;;5036329;28;20029;-57
2021/03/25 04:37:10;;;;;;;8.57;6.90;;;;;;;;;;5053435;28;20116;-57
2021/03/25 04:40:26;;;;;;;12.03;7.57;;;;;;;;;;5054698;28;20549;-55
2021/03/25 04:43:09;;;;;;;10.07;7.13;;;;;;;;;;5036154;28;20037;-55
2021/03/25 04:46:06;;;;;;;10.43;7.90;;;;;;;;;;5054403;28;20025;-57
2021/03/25 04:48:46;;;;;;;10.77;7.80;;;;;;;;;;5054594;28;20371;-57
2021/03/25 04:51:17;;;;;;;10.00;8.35;;;;;;;;;;5053809;28;20028;-53
2021/03/25 04:54:12;;;;;;;10.20;7.40;;;;;;;;;;5035057;28;20061;-58
2021/03/25 05:02:48;;;;;;;10.70;8.10;;;;;;;;;;5053565;28;20056;-56
2021/03/25 05:05:16;;;;;;;10.90;7.53;;;;;;;;;;5053281;28;20021;-56
2021/03/25 05:07:49;;;;;;;12.27;8.20;;;;;;;;;;5035211;28;20513;-57
2021/03/25 05:20:14;;;;;;;11.77;7.90;;;;;;;;;;5050038;28;20037;-55
2021/03/25 05:23:04;;;;;;;9.60;7.37;;;;;;;;;;4972251;28;20520;-56
2021/03/25 05:26:00;;;;;;;11.30;8.50;;;;;;;;;;4972053;28;20385;-56
2021/03/25 05:31:55;;;;;;;11.60;7.77;;;;;;;;;;5053003;28;20038;-57
2021/03/25 05:34:52;;;;;;;11.40;7.67;;;;;;;;;;5052634;28;20429;-57
2021/03/25 05:37:45;;;;;;;9.47;7.07;;;;;;;;;;5051009;28;20056;-56
2021/03/25 05:41:03;;;;;;;13.83;8.03;;;;;;;;;;5053028;28;20127;-55
2021/03/25 05:43:50;;;;;;;9.20;7.57;;;;;;;;;;4959392;28;20039;-55
2021/03/25 05:46:58;;;;;;;11.13;6.80;;;;;;;;;;4975550;28;20030;-57
2021/03/25 05:53:06;;;;;;;;;;;;;;;;;;;;;
2021/03/25 05:58:40;;;;;;;9.87;8.50;;;;;;;;;;5056013;28;20111;-57
2021/03/25 06:01:32;;;;;;;11.53;7.00;;;;;;;;;;5037710;28;20479;-57
2021/03/25 06:04:10;;;;;;;9.03;7.27;;;;;;;;;;4975318;28;20039;-56
2021/03/25 06:06:58;;;;;;;12.03;7.63;;;;;;;;;;4975709;28;20478;-57
2021/03/25 06:10:04;;;;;;;9.87;7.27;;;;;;;;;;5025766;28;20033;-57
2021/03/25 06:12:54;;;;;;;11.10;7.20;;;;;;;;;;5053329;28;20029;-58
2021/03/25 06:15:37;;;;;;;12.02;7.22;;;;;;;;;;5056631;28;20029;-55
2021/03/25 06:18:25;;;;;;;11.32;6.55;;;;;;;;;;5039252;28;20116;-58
2021/03/25 06:21:21;;;;;;;9.20;6.18;;;;;;;;;;5038096;28;20036;-56
2021/03/25 06:23:52;;;;;;;8.43;5.88;;;;;;;;;;5056694;28;20036;-57
2021/03/25 06:26:26;;;;;;;9.60;6.43;;;;;;;;;;5056220;28;20029;-56
2021/03/25 06:32:35;;;;;;;;;;;;;;;;;;;;;
2021/03/25 06:35:08;;;;;;;10.68;7.20;;;;;;;;;;5043894;28;20033;-57
2021/03/25 06:37:53;;;;;;;9.00;6.80;;;;;;;;;;5056185;28;20075;-56
2021/03/25 06:40:35;;;;;;;;;;;;;;;;;;;;;
2021/03/25 06:43:14;;;;;;;10.15;6.72;;;;;;;;;;5027126;28;20029;-57
2021/03/25 06:49:05;;;;;;;8.80;6.20;;;;;;;;;;5052958;28;20029;-55
2021/03/25 06:51:36;;;;;;;12.48;6.85;;;;;;;;;;5055345;28;20075;-57
2021/03/25 06:54:32;;;;;;;11.23;7.68;;;;;;;;;;5054885;28;20053;-57
2021/03/25 06:57:27;;;;;;;14.87;6.60;;;;;;;;;;5055680;28;20120;-58
2021/03/25 06:59:59;;;;;;;9.35;6.78;;;;;;;;;;5037109;28;20036;-57
2021/03/25 07:02:40;;;;;;;6.97;6.28;;;;;;;;;;5054915;28;20141;-58
2021/03/25 07:08:28;;;;;;;10.30;6.65;;;;;;;;;;5047664;28;20036;-57
2021/03/25 07:11:04;;;;;;;9.10;6.85;;;;;;;;;;5054758;28;20047;-58
2021/03/25 07:19:22;;;;;;;;;;;;;;;;;;5044625;28;20124;-58
2021/03/25 07:22:19;;;;;;;11.18;7.15;;;;;;;;;;5055391;28;19955;-58
2021/03/25 07:25:18;;;;;;;;;;;;;;;;;;;;;
2021/03/25 07:27:49;;;;;;;8.05;6.32;;;;;;;;;;5051016;28;20033;-57
2021/03/25 07:33:34;;;;;;;10.00;6.22;;;;;;;;;;5025715;28;20029;-58
2021/03/25 07:36:11;;;;;;;15.95;6.25;;;;;;;;;;5031849;28;20471;-57
2021/03/25 07:38:47;;;;;;;7.22;5.55;;;;;;;;;;5055258;28;20350;-58
2021/03/25 07:41:31;;;;;;;8.30;6.43;;;;;;;;;;5055184;28;20019;-57
2021/03/25 07:47:37;;;;;;;8.25;5.55;;;;;;;;;;5041136;28;20025;-55
2021/03/25 07:50:31;;;;;;;10.35;6.43;;;;;;;;;;5054336;28;20025;-56
2021/03/25 07:53:30;;;;;;;14.02;7.22;;;;;;;;;;5036951;28;20474;-58
2021/03/25 07:56:19;;;;;;;10.90;6.38;;;;;;;;;;5036187;28;20502;-57
2021/03/25 08:02:00;;;;;;;11.30;6.10;;;;;;;;;;4992446;28;20544;-57
2021/03/25 08:04:44;;;;;;;9.05;6.72;;;;;;;;;;4992992;28;20381;-58
2021/03/25 08:07:13;;;;;;;15.50;6.82;;;;;;;;;;4976129;28;20077;-55
2021/03/25 08:10:02;;;;;;;10.00;6.68;;;;;;;;;;5012471;28;20045;-56
2021/03/25 08:12:32;;;;;;;9.30;6.88;;;;;;;;;;5036791;28;20485;-58
2021/03/25 08:18:34;;;;;;;13.15;6.28;;;;;;;;;;5054607;28;20029;-58
2021/03/25 08:21:27;;;;;;;10.13;5.97;;;;;;;;;;5052593;28;20487;-58
2021/03/25 08:24:21;;;;;;;;;;;;;;;;;;;;;
2021/03/25 08:27:11;;;;;;;11.20;5.70;;;;;;;;;;5051192;28;20489;-57
2021/03/25 08:29:49;;;;;;;7.57;5.20;;;;;;;;;;5054263;28;20021;-56
2021/03/25 08:32:33;;;;;;;7.68;5.22;;;;;;;;;;5054841;28;20017;-58
2021/03/25 08:38:11;;;;;;;12.40;6.90;;;;;;;;;;5053966;28;20036;-57
2021/03/25 08:41:03;;;;;;;6.63;5.80;;;;;;;;;;5053885;28;20375;-59
2021/03/25 08:43:51;;;;;;;13.55;5.47;;;;;;;;;;5047972;28;20037;-56
2021/03/25 08:46:53;;;;;;;7.30;5.43;;;;;;;;;;5054395;28;20455;-59
2021/03/25 08:49:22;;;;;;;5.68;5.07;;;;;;;;;;4972504;28;20066;-57
2021/03/25 08:51:48;;;;;;;15.15;5.45;;;;;;;;;;4969998;28;20087;-58
2021/03/25 08:54:26;;;;;;;6.63;6.00;;;;;;;;;;5035283;28;20033;-57
2021/03/25 08:57:20;;;;;;;6.28;5.20;;;;;;;;;;5052501;28;20052;-59
2021/03/25 08:59:54;;;;;;;13.10;5.80;;;;;;;;;;5053223;28;20044;-58
2021/03/25 09:02:49;;;;;;;10.68;6.05;;;;;;;;;;5035511;28;20042;-59
2021/03/25 09:05:29;;;;;;;8.30;5.90;;;;;;;;;;5054023;28;20030;-59
2021/03/25 09:08:00;;;;;;;7.03;5.72;;;;;;;;;;5053154;28;20025;-57
2021/03/25 09:10:29;;;;;;;9.15;5.85;;;;;;;;;;5054109;28;20434;-58
2021/03/25 09:12:57;;;;;;;7.65;5.40;;;;;;;;;;5053394;28;20036;-59
2021/03/25 09:15:59;;;;;;;6.80;5.97;;;;;;;;;;5055157;28;20036;-58
2021/03/25 09:18:39;;;;;;;;;;;;;;;;;;;;;
2021/03/25 09:21:32;;;;;;;7.57;4.88;;;;;;;;;;5054327;28;20080;-58
2021/03/25 09:24:04;;;;;;;10.07;5.95;;;;;;;;;;5053522;28;20033;-58
2021/03/25 09:26:59;;;;;;;5.03;4.53;;;;;;;;;;5056970;28;20029;-58
2021/03/25 09:29:48;;;;;;;7.28;4.97;;;;;;;;;;5022428;28;20037;-59
2021/03/25 09:32:38;;;;;;;7.68;5.22;;;;;;;;;;5054802;28;20037;-58
2021/03/25 09:35:27;;;;;;;6.80;5.85;;;;;;;;;;5057253;28;20025;-58
2021/03/25 09:37:59;;;;;;;6.90;5.15;;;;;;;;;;5045436;28;20497;-58
2021/03/25 09:40:35;;;;;;;6.70;4.70;;;;;;;;;;5056537;28;20478;-60
2021/03/25 09:43:19;;;;;;;6.82;5.25;;;;;;;;;;5056933;28;20053;-59
2021/03/25 09:45:54;;;;;;;7.25;5.30;;;;;;;;;;5056419;28;20151;-58
2021/03/25 09:48:31;;;;;;;6.30;4.72;;;;;;;;;;5057229;28;20017;-59
2021/03/25 09:51:09;;;;;;;7.65;4.88;;;;;;;;;;5056580;28;20100;-58
2021/03/25 09:54:09;;;;;;;6.00;4.75;;;;;;;;;;5056666;28;20021;-58
2021/03/25 09:56:36;;;;;;;9.93;4.20;;;;;;;;;;5042305;28;20124;-58
2021/03/25 09:59:05;;;;;;;7.97;4.95;;;;;;;;;;5038237;28;20041;-59
2021/03/25 10:01:51;;;;;;;7.25;4.90;;;;;;;;;;5056365;28;20025;-59
2021/03/25 10:04:44;;;;;;;9.68;5.18;;;;;;;;;;5038084;28;20021;-59
2021/03/25 10:07:29;;;;;;;4.32;3.72;;;;;;;;;;5057361;28;20029;-59
2021/03/25 10:10:09;;;;;;;8.88;5.10;;;;;;;;;;5056538;28;20032;-59
2021/03/25 10:12:47;;;;;;;7.60;4.72;;;;;;;;;;5056125;28;20028;-59
2021/03/25 10:15:42;;;;;;;8.32;5.13;;;;;;;;;;5055691;28;20025;-58
2021/03/25 10:18:19;;;;;;;6.43;4.45;;;;;;;;;;5055859;28;20037;-58
2021/03/25 10:20:57;;;;;;;10.23;4.65;;;;;;;;;;5055758;28;20041;-59
2021/03/25 10:23:42;;;;;;;9.23;4.55;;;;;;;;;;5056486;28;20025;-58
2021/03/25 10:26:16;;;;;;;11.20;4.93;;;;;;;;;;5037515;28;20178;-59
2021/03/25 10:28:49;;;;;;;6.90;4.35;;;;;;;;;;5038248;28;20098;-59
2021/03/25 10:31:32;;;;;;;6.57;5.13;;;;;;;;;;5056701;28;20413;-58
2021/03/25 10:34:26;;;;;;;8.82;5.60;;;;;;;;;;5055896;28;20025;-58
2021/03/25 10:36:55;;;;;;;6.53;4.75;;;;;;;;;;5055992;28;20025;-59
2021/03/25 10:39:30;;;;;;;6.05;4.03;;;;;;;;;;5037658;28;20033;-58
2021/03/25 10:42:10;;;;;;;7.32;4.20;;;;;;;;;;5055652;28;20033;-59
2021/03/25 10:44:42;;;;;;;5.93;4.63;;;;;;;;;;5055379;28;20463;-59
2021/03/25 10:47:19;;;;;;;5.25;3.97;;;;;;;;;;5038542;28;20029;-57
2021/03/25 10:49:52;;;;;;;6.28;4.15;;;;;;;;;;5037254;28;20041;-59
2021/03/25 10:52:36;;;;;;;7.47;3.72;;;;;;;;;;5055448;28;20021;-59
2021/03/25 10:55:04;;;;;;;7.93;4.22;;;;;;;;;;5037356;28;20375;-59
2021/03/25 10:57:30;;;;;;;7.18;4.13;;;;;;;;;;5038254;28;20086;-58
2021/03/25 11:00:18;;;;;;;;;;;;;;;;;;;;;
2021/03/25 11:02:54;;;;;;;6.57;4.53;;;;;;;;;;5051632;28;20043;-59
2021/03/25 11:05:22;;;;;;;5.75;3.75;;;;;;;;;;5054773;28;20025;-58
2021/03/25 11:08:10;;;;;;;6.90;3.47;;;;;;;;;;5037160;28;20025;-58
2021/03/25 11:10:56;;;;;;;9.27;3.70;;;;;;;;;;5054991;28;20033;-59
2021/03/25 11:13:25;;;;;;;13.60;4.63;;;;;;;;;;5054945;28;20031;-59
2021/03/25 11:16:00;;;;;;;3.85;3.05;;;;;;;;;;5053991;28;20352;-59
2021/03/25 11:18:31;;;;;;;7.82;4.03;;;;;;;;;;5054682;28;20421;-59
2021/03/25 11:20:58;;;;;;;6.20;3.45;;;;;;;;;;5054752;28;20021;-59
2021/03/25 11:23:29;;;;;;;8.57;3.97;;;;;;;;;;5055703;28;20021;-58
2021/03/25 11:26:01;;;;;;;7.78;4.47;;;;;;;;;;5036659;28;20029;-59
2021/03/25 11:28:29;;;;;;;5.70;4.07;;;;;;;;;;5054287;28;20033;-59
2021/03/25 11:31:15;;;;;;;4.57;4.05;;;;;;;;;;5054578;28;20075;-59
2021/03/25 11:33:41;;;;;;;5.97;4.60;;;;;;;;;;5055092;28;20119;-59
2021/03/25 11:36:30;;;;;;;6.63;4.40;;;;;;;;;;5054849;28;20036;-59
2021/03/25 11:39:10;;;;;;;7.88;5.38;;;;;;;;;;5053866;28;20489;-59
2021/03/25 11:41:36;;;;;;;12.77;4.68;;;;;;;;;;5036722;28;20044;-59
2021/03/25 11:44:05;;;;;;;5.63;4.13;;;;;;;;;;5055078;28;20025;-59
2021/03/25 11:46:34;;;;;;;8.15;5.15;;;;;;;;;;5054199;28;20029;-59
2021/03/25 11:49:08;;;;;;;6.70;4.68;;;;;;;;;;5054291;28;20025;-59
2021/03/25 11:51:41;;;;;;;11.48;4.82;;;;;;;;;;5053939;28;20052;-59
2021/03/25 11:54:22;;;;;;;4.82;3.80;;;;;;;;;;5054239;28;20029;-59
2021/03/25 11:56:55;;;;;;;7.18;5.07;;;;;;;;;;5054308;28;20045;-59
2021/03/25 11:59:24;;;;;;;5.47;3.72;;;;;;;;;;5054596;28;20124;-59
2021/03/25 12:02:05;;;;;;;5.75;3.90;;;;;;;;;;5054159;28;20095;-59
2021/03/25 12:04:35;;;;;;;9.85;4.80;;;;;;;;;;5054312;28;20025;-58
2021/03/25 12:07:10;;;;;;;5.05;3.70;;;;;;;;;;5035900;28;20249;-59
2021/03/25 12:09:36;;;;;;;7.88;3.80;;;;;;;;;;5053517;28;20030;-59
2021/03/25 12:12:07;;;;;;;8.18;4.30;;;;;;;;;;5053906;28;20021;-59
2021/03/25 12:14:33;;;;;;;6.55;3.83;;;;;;;;;;5054715;28;20116;-59
2021/03/25 12:17:03;;;;;;;6.03;4.25;;;;;;;;;;5053830;28;20036;-59
2021/03/25 12:19:32;;;;;;;;;;;;;;;;;;5054606;28;20025;-59
2021/03/25 12:21:58;;;;;;;6.68;5.05;;;;;;;;;;5053919;28;20342;-59
2021/03/25 12:24:24;;;;;;;6.22;4.03;;;;;;;;;;5053636;28;20079;-59
2021/03/25 12:26:50;;;;;;;6.47;3.97;;;;;;;;;;5053655;28;20029;-59
2021/03/25 12:29:20;;;;;;;7.18;4.93;;;;;;;;;;5053582;28;20021;-59
2021/03/25 12:31:46;;;;;;;6.60;3.95;;;;;;;;;;5053358;28;20068;-59
2021/03/25 12:34:15;;;;;;;7.07;4.10;;;;;;;;;;5036398;28;20021;-59
2021/03/25 12:36:41;;;;;;;7.47;3.85;;;;;;;;;;5053417;28;20116;-58
2021/03/25 12:39:20;;;;;;;;;;;;;;;;;;;;;
2021/03/25 12:41:47;;;;;;;6.20;3.55;;;;;;;;;;5053632;28;20033;-59
2021/03/25 12:44:15;;;;;;;6.10;3.40;;;;;;;;;;5053327;28;20116;-59
2021/03/25 12:46:44;;;;;;;4.72;3.67;;;;;;;;;;5053342;28;20095;-59
2021/03/25 12:49:12;;;;;;;7.70;5.45;;;;;;;;;;5035686;28;20029;-59
2021/03/25 12:51:41;;;;;;;12.55;6.10;;;;;;;;;;5056979;28;20494;-59
2021/03/25 12:54:07;;;;;;;8.85;5.35;;;;;;;;;;5057898;28;20057;-58
2021/03/25 12:56:35;;;;;;;6.35;4.20;;;;;;;;;;5038661;28;20041;-59
2021/03/25 12:59:02;;;;;;;8.88;4.60;;;;;;;;;;5057947;28;20041;-59
2021/03/25 13:01:28;;;;;;;11.43;5.40;;;;;;;;;;5057170;28;20025;-59
2021/03/25 13:03:57;;;;;;;10.25;5.03;;;;;;;;;;5039793;28;20033;-59
2021/03/25 13:06:25;;;;;;;8.15;5.63;;;;;;;;;;5057019;28;20467;-59
2021/03/25 13:08:52;;;;;;;9.15;5.63;;;;;;;;;;5039420;28;20048;-59
2021/03/25 13:11:20;;;;;;;7.47;4.78;;;;;;;;;;5058217;28;20104;-59
2021/03/25 13:13:46;;;;;;;10.80;5.28;;;;;;;;;;5057686;28;20079;-59
2021/03/25 13:16:13;;;;;;;7.25;4.90;;;;;;;;;;5057172;28;20431;-59
2021/03/25 13:18:41;;;;;;;9.55;5.00;;;;;;;;;;5039019;28;20158;-59
2021/03/25 13:21:08;;;;;;;10.55;4.88;;;;;;;;;;5057801;28;20044;-58
2021/03/25 13:23:37;;;;;;;10.18;5.90;;;;;;;;;;5055018;28;20124;-59
2021/03/25 13:26:07;;;;;;;9.23;5.30;;;;;;;;;;5056671;28;20064;-58
2021/03/25 13:28:33;;;;;;;8.55;5.03;;;;;;;;;;5056794;28;20029;-59
2021/03/25 13:31:02;;;;;;;8.05;4.97;;;;;;;;;;5056960;28;20079;-59
2021/03/25 13:33:31;;;;;;;7.88;5.03;;;;;;;;;;5039485;28;20025;-59
2021/03/25 13:36:00;;;;;;;7.65;5.65;;;;;;;;;;5038993;28;20116;-59
2021/03/25 13:38:26;;;;;;;9.27;5.72;;;;;;;;;;5038600;28;20388;-59
2021/03/25 13:40:53;;;;;;;8.52;5.82;;;;;;;;;;5056757;28;20039;-59
2021/03/25 13:43:27;;;;;;;8.85;5.22;;;;;;;;;;5056469;28;20100;-58
2021/03/25 13:45:56;;;;;;;8.02;6.18;;;;;;;;;;5039035;28;20020;-59
2021/03/25 13:48:22;;;;;;;8.38;5.85;;;;;;;;;;5056676;28;20108;-59
2021/03/25 13:50:50;;;;;;;11.18;6.13;;;;;;;;;;5056346;28;20032;-58
2021/03/25 13:53:16;;;;;;;6.78;4.72;;;;;;;;;;5056595;28;20025;-59
2021/03/25 13:55:46;;;;;;;9.18;5.35;;;;;;;;;;5037841;28;20084;-59
2021/03/25 13:58:17;;;;;;;5.95;4.47;;;;;;;;;;5056998;28;20021;-59
2021/03/25 14:00:43;;;;;;;;;;;;;;;;;;5056983;28;20037;-59
2021/03/25 14:03:09;;;;;;;5.90;4.57;;;;;;;;;;5055964;28;20332;-59
2021/03/25 14:05:38;;;;;;;7.50;4.85;;;;;;;;;;5055737;28;20028;-59
2021/03/25 14:08:05;;;;;;;8.75;4.72;;;;;;;;;;5056193;28;20443;-59
2021/03/25 14:10:34;;;;;;;7.55;4.60;;;;;;;;;;5056731;28;20433;-59
2021/03/25 14:13:09;;;;;;;9.00;5.50;;;;;;;;;;5055990;28;20029;-59
2021/03/25 14:15:43;;;;;;;6.50;4.88;;;;;;;;;;5056150;28;20467;-59
2021/03/25 14:18:13;;;;;;;6.28;3.65;;;;;;;;;;5055873;28;20075;-59
2021/03/25 14:20:40;;;;;;;8.32;4.53;;;;;;;;;;5055755;28;20041;-59
2021/03/25 14:23:06;;;;;;;11.77;5.60;;;;;;;;;;5038735;28;20033;-59
2021/03/25 14:25:34;;;;;;;8.25;5.22;;;;;;;;;;5055799;28;20021;-59
2021/03/25 14:28:00;;;;;;;7.38;4.60;;;;;;;;;;5055558;28;20053;-59
2021/03/25 14:30:29;;;;;;;6.10;4.47;;;;;;;;;;5037347;28;20035;-59
2021/03/25 14:32:59;;;;;;;11.43;5.18;;;;;;;;;;5056129;28;20028;-58
2021/03/25 14:35:26;;;;;;;6.78;4.55;;;;;;;;;;5037813;28;20025;-58
2021/03/25 14:37:55;;;;;;;6.57;4.43;;;;;;;;;;5037607;28;20029;-59
2021/03/25 14:40:22;;;;;;;7.10;4.35;;;;;;;;;;5037554;28;20033;-59
2021/03/25 14:42:49;;;;;;;12.15;4.65;;;;;;;;;;5055704;28;20035;-59
2021/03/25 14:45:16;;;;;;;7.22;4.40;;;;;;;;;;5055252;28;20024;-59
2021/03/25 14:47:42;;;;;;;8.85;5.93;;;;;;;;;;5055187;28;20033;-59
2021/03/25 14:50:09;;;;;;;9.98;4.45;;;;;;;;;;5037168;28;20029;-59
2021/03/25 14:52:35;;;;;;;5.78;4.32;;;;;;;;;;5055368;28;20127;-59
2021/03/25 14:55:01;;;;;;;7.57;5.07;;;;;;;;;;5055201;28;20028;-59
2021/03/25 14:57:27;;;;;;;7.22;5.50;;;;;;;;;;5055709;28;20048;-58
2021/03/25 14:59:58;;;;;;;9.35;4.97;;;;;;;;;;5037333;28;20383;-59
2021/03/25 15:02:24;;;;;;;9.20;5.15;;;;;;;;;;5037864;28;20033;-59
2021/03/25 15:04:50;;;;;;;8.10;5.40;;;;;;;;;;5054887;28;20035;-59
2021/03/25 15:07:17;;;;;;;8.95;5.38;;;;;;;;;;5055016;28;20100;-58
2021/03/25 15:09:43;;;;;;;9.80;5.65;;;;;;;;;;5054744;28;20100;-57
2021/03/25 15:12:10;;;;;;;7.03;5.95;;;;;;;;;;5037652;28;20040;-59
2021/03/25 15:14:39;;;;;;;9.23;5.65;;;;;;;;;;5054767;28;20100;-59
2021/03/25 15:17:05;;;;;;;9.20;6.03;;;;;;;;;;5036956;28;20017;-59
2021/03/25 15:19:32;;;;;;;7.78;5.47;;;;;;;;;;5037497;28;20098;-59
2021/03/25 15:22:01;;;;;;;8.43;5.35;;;;;;;;;;5036960;28;20112;-59
2021/03/25 15:24:27;;;;;;;12.45;7.20;;;;;;;;;;5036865;28;20348;-58
2021/03/25 15:26:53;;;;;;;8.00;5.63;;;;;;;;;;5036660;28;20025;-59
2021/03/25 15:29:22;;;;;;;8.73;5.70;;;;;;;;;;5054449;28;20108;-58
2021/03/25 15:31:54;;;;;;;9.48;5.82;;;;;;;;;;5054304;28;20487;-59
2021/03/25 15:34:20;;;;;;;11.10;5.65;;;;;;;;;;5054981;28;20028;-59
2021/03/25 15:36:47;;;;;;;10.57;5.95;;;;;;;;;;5054032;28;20029;-59
2021/03/25 15:39:13;;;;;;;12.25;6.28;;;;;;;;;;5036508;28;20471;-58
2021/03/25 15:41:39;;;;;;;11.10;6.35;;;;;;;;;;5036608;28;20167;-59
2021/03/25 15:44:08;;;;;;;11.45;6.28;;;;;;;;;;5054723;28;20040;-59
2021/03/25 15:46:34;;;;;;;8.20;5.90;;;;;;;;;;5054591;28;20025;-58
2021/03/25 15:49:03;;;;;;;12.40;6.15;;;;;;;;;;5054358;28;20037;-59
2021/03/25 15:51:30;;;;;;;6.47;5.10;;;;;;;;;;5053527;28;20031;-58
2021/03/25 15:53:56;;;;;;;7.65;5.60;;;;;;;;;;5036789;28;20051;-59
2021/03/25 15:56:27;;;;;;;11.13;6.93;;;;;;;;;;5053841;28;20044;-59
2021/03/25 15:58:54;;;;;;;8.50;5.40;;;;;;;;;;5035708;28;20128;-58
2021/03/25 16:01:23;;;;;;;6.95;5.10;;;;;;;;;;5054426;28;20034;-59
2021/03/25 16:03:52;;;;;;;6.80;4.97;;;;;;;;;;5053582;28;20021;-59
2021/03/25 16:06:20;;;;;;;8.75;6.28;;;;;;;;;;5053967;28;20028;-59
2021/03/25 16:08:47;;;;;;;7.90;5.93;;;;;;;;;;5053846;28;20037;-58
2021/03/25 16:11:16;;;;;;;8.30;5.95;;;;;;;;;;5053519;28;20021;-58
2021/03/25 16:13:45;;;;;;;7.47;4.03;;;;;;;;;;5036517;28;20033;-59
2021/03/25 16:16:11;;;;;;;6.00;4.75;;;;;;;;;;5036035;28;20032;-57
2021/03/25 16:18:37;;;;;;;9.20;5.30;;;;;;;;;;5053596;28;20025;-56
2021/03/25 16:21:05;;;;;;;8.10;5.53;;;;;;;;;;5053509;28;20025;-57
2021/03/25 16:23:33;;;;;;;8.80;4.97;;;;;;;;;;5053989;28;20035;-58
2021/03/25 16:26:01;;;;;;;4.85;4.05;;;;;;;;;;5053801;28;20021;-58
2021/03/25 16:28:28;;;;;;;6.45;3.80;;;;;;;;;;5053450;28;20112;-58
2021/03/25 16:30:58;;;;;;;5.95;5.10;;;;;;;;;;5053326;28;20029;-58
2021/03/25 16:33:26;;;;;;;6.07;4.28;;;;;;;;;;5053575;28;20021;-58
2021/03/25 16:35:53;;;;;;;10.75;4.80;;;;;;;;;;5035544;28;20025;-59
2021/03/25 16:38:24;;;;;;;4.88;4.10;;;;;;;;;;5053652;28;20025;-58
2021/03/25 16:40:50;;;;;;;6.47;4.35;;;;;;;;;;5053557;28;20032;-58
2021/03/25 16:43:19;;;;;;;5.78;4.60;;;;;;;;;;5053674;28;20025;-58
2021/03/25 16:45:46;;;;;;;7.70;4.55;;;;;;;;;;5053169;28;20390;-58
2021/03/25 16:48:15;;;;;;;8.60;4.47;;;;;;;;;;5053852;28;20067;-58
2021/03/25 16:50:41;;;;;;;4.78;4.05;;;;;;;;;;5054039;28;20336;-58
2021/03/25 16:53:10;;;;;;;6.82;3.55;;;;;;;;;;5053292;28;20021;-58
2021/03/25 16:55:38;;;;;;;5.22;3.33;;;;;;;;;;5034624;28;20170;-57
2021/03/25 16:58:12;;;;;;;9.70;4.32;;;;;;;;;;5052842;28;20025;-58
2021/03/25 17:00:40;;;;;;;4.75;3.72;;;;;;;;;;5035980;28;20033;-57
2021/03/25 17:03:07;;;;;;;6.63;4.35;;;;;;;;;;5053198;28;20033;-57
2021/03/25 17:05:34;;;;;;;6.82;4.03;;;;;;;;;;5053188;28;20086;-58
2021/03/25 17:08:00;;;;;;;6.85;3.63;;;;;;;;;;5053485;28;20334;-57
2021/03/25 17:10:28;;;;;;;8.40;3.78;;;;;;;;;;5053388;28;20041;-58
2021/03/25 17:12:54;;;;;;;4.75;3.40;;;;;;;;;;5035177;28;20037;-57
2021/03/25 17:15:25;;;;;;;5.05;3.33;;;;;;;;;;5052623;28;20474;-57
2021/03/25 17:17:51;;;;;;;6.55;4.35;;;;;;;;;;5053586;28;20029;-58
2021/03/25 17:20:23;;;;;;;5.75;4.55;;;;;;;;;;5052512;28;20492;-57
2021/03/25 17:22:49;;;;;;;6.63;4.25;;;;;;;;;;5053001;28;20068;-57